Data for 10/28/2014

Time Sea-Level Adjusted Pressure Absolute Pressure Temperature Relative Humidity Dew Point   
(mb) (inHg) (mb) (inHg) (C) (F) (%) (C) (F)
00:05 1021 30.15 850 25.1 -1.2 29.8 63 -7.3 18.9
00:10 1021 30.15 850 25.1 -1.3 29.7 63 -7.4 18.7
00:15 1021 30.15 850 25.1 -1.2 29.9 63 -7.4 18.6
00:20 1021 30.15 850 25.1 -1.2 29.8 62 -7.5 18.4
00:25 1021 30.15 850 25.1 -1.2 29.9 62 -7.5 18.5
00:30 1021 30.15 850 25.1 -1.1 30 61 -7.6 18.3
00:35 1021 30.15 850 25.1 -1 30.3 61 -7.6 18.4
00:40 1021 30.15 850 25.1 -0.9 30.3 62 -7.4 18.7
00:45 1021 30.15 850 25.1 -1 30.3 62 -7.3 18.9
00:50 1021 30.15 850 25.1 -0.9 30.3 62 -7.4 18.6
00:55 1021 30.15 850 25.1 -1 30.3 63 -7.1 19.1
01:00 1021 30.15 850 25.1 -1 30.1 62 -7.5 18.5
01:05 1021 30.15 850 25.1 -1 30.2 62 -7.4 18.6
01:10 1021 30.15 850 25.1 -1.1 30.1 61 -7.6 18.4
01:15 1021 30.15 850 25.1 -1.1 30 61 -7.7 18.2
01:20 1021 30.15 850 25.1 -1.3 29.6 62 -7.6 18.3
01:25 1021 30.15 850 25.1 -1.4 29.5 62 -7.8 17.9
01:30 1021 30.15 850 25.1 -1.4 29.4 62 -7.8 18
01:35 1021 30.15 850 25.1 -1.5 29.2 62 -7.9 17.8
01:40 1021 30.15 850 25.1 -1.5 29.3 62 -7.9 17.8
01:45 1021 30.15 850 25.1 -1.2 29.9 62 -7.5 18.5
01:50 1021 30.15 850 25.1 -1 30.3 61 -7.5 18.4
01:55 1021 30.15 850 25.1 -1.1 30 62 -7.6 18.4
02:00 1021 30.15 850 25.1 -1.2 29.8 61 -7.8 17.9
02:05 1021 30.15 850 25.1 -1.1 30 60 -7.8 17.9
02:10 1021 30.15 850 25.1 -1 30.2 60 -7.7 18.1
02:15 1021 30.15 850 25.1 -1.1 30.1 60 -7.8 18
02:20 1021 30.15 850 25.1 -1.2 29.9 61 -7.8 18
02:25 1021 30.15 850 25.1 -1.4 29.5 61 -7.9 17.9
02:30 1021 30.15 850 25.1 -1.4 29.4 61 -8 17.7
02:35 1021 30.15 850 25.1 -1.4 29.5 61 -7.9 17.7
02:40 1021 30.15 850 25.1 -1.5 29.4 62 -7.8 17.9
02:45 1021 30.15 850 25.1 -1.6 29.2 63 -7.7 18.2
02:50 1021 30.15 850 25.1 -1.6 29.1 63 -7.8 17.9
02:55 1021 30.15 850 25.1 -1.7 28.9 63 -7.9 17.8
03:00 1021 30.15 850 25.1 -1.7 28.9 63 -7.9 17.8
03:05 1021 30.15 850 25.1 -1.8 28.8 63 -7.9 17.8
03:10 1021 30.15 850 25.1 -1.8 28.7 63 -8 17.6
03:15 1021 30.15 850 25.1 -1.8 28.7 63 -7.9 17.8
03:20 1021 30.15 850 25.1 -2 28.4 64 -7.9 17.8
03:25 1021 30.15 850 25.1 -2.2 28.1 65 -7.9 17.8
03:30 1021 30.15 850 25.1 -2.4 27.6 66 -8 17.7
03:35 1021 30.15 850 25.1 -2.4 27.7 65 -8.1 17.4
03:40 1021 30.15 850 25.1 -2.3 27.9 65 -8 17.6
03:45 1021 30.15 850 25.1 -2.3 27.9 65 -8 17.7
03:50 1021 30.15 850 25.1 -2.4 27.6 66 -7.9 17.7
03:55 1021 30.15 850 25.1 -2.6 27.4 66 -8 17.6
04:00 1021 30.15 850 25.1 -2.6 27.3 66 -8.1 17.5
04:05 1021 30.15 850 25.1 -2.8 27 67 -8.2 17.3
04:10 1021 30.15 850 25.1 -2.6 27.4 66 -8 17.5
04:15 1021 30.15 850 25.1 -2.6 27.3 67 -8 17.6
04:20 1021 30.15 850 25.1 -2.6 27.2 67 -8 17.6
04:25 1021 30.15 850 25.1 -2.6 27.3 67 -8 17.6
04:30 1021 30.15 850 25.1 -2.6 27.4 66 -8 17.6
04:35 1021 30.15 850 25.1 -2.5 27.6 65 -8.2 17.3
04:40 1021 30.15 850 25.1 -2.4 27.7 65 -8.1 17.4
04:45 1021 30.15 850 25.1 -2.3 27.9 64 -8.1 17.4
04:50 1021 30.15 850 25.1 -2.3 27.9 64 -8.1 17.4
04:55 1021 30.15 850 25.1 -2.3 27.9 64 -8.2 17.3
05:00 1021 30.15 850 25.1 -2.5 27.4 65 -8.2 17.3
05:05 1021 30.15 851 25.13 -2.6 27.3 65 -8.3 17.1
05:10 1021 30.15 851 25.13 -2.4 27.6 65 -8.2 17.3
05:15 1021 30.15 851 25.13 -2.5 27.6 66 -8 17.6
05:20 1021 30.15 851 25.13 -2.6 27.2 65 -8.3 17
05:25 1021 30.15 851 25.13 -2.4 27.7 64 -8.3 17.1
05:30 1021 30.15 851 25.13 -2.5 27.5 65 -8.2 17.2
05:35 1021 30.15 851 25.13 -2.4 27.7 64 -8.3 17
05:40 1021 30.15 851 25.13 -2.5 27.5 65 -8.1 17.4
05:45 1021 30.15 851 25.13 -2.7 27.1 65 -8.4 16.8
05:50 1021 30.15 851 25.13 -2.5 27.5 65 -8.3 17
05:55 1021 30.15 851 25.13 -2.7 27.1 66 -8.3 17.1
06:00 1021 30.15 851 25.13 -2.8 26.9 66 -8.3 17
06:05 1021 30.15 851 25.13 -2.7 27.1 65 -8.5 16.7
06:10 1021 30.15 851 25.13 -2.5 27.5 64 -8.4 16.8
06:15 1021 30.15 851 25.13 -2.1 28.1 62 -8.4 16.9
06:20 1021 30.15 851 25.13 -2.1 28.2 63 -8.2 17.3
06:25 1022 30.18 851 25.13 -2.1 28.2 62 -8.4 16.9
06:30 1022 30.18 851 25.13 -2 28.4 62 -8.3 17.1
06:35 1022 30.18 851 25.13 -2.3 27.9 64 -8.2 17.3
06:40 1022 30.18 851 25.13 -2.6 27.3 65 -8.3 17.1
06:45 1022 30.18 851 25.13 -2.9 26.8 66 -8.4 16.9
06:50 1022 30.18 851 25.13 -2.8 27.1 65 -8.5 16.7
06:55 1022 30.18 851 25.13 -2.4 27.8 63 -8.5 16.7
07:00 1022 30.18 851 25.13 -2.4 27.7 64 -8.3 17
07:05 1022 30.18 851 25.13 -2.5 27.5 64 -8.5 16.7
07:10 1022 30.18 851 25.13 -2.5 27.5 64 -8.3 17
07:15 1022 30.18 851 25.13 -2.8 27 66 -8.3 17.1
07:20 1022 30.18 851 25.13 -3 26.6 67 -8.4 17
07:25 1022 30.18 851 25.13 -3.1 26.4 66 -8.5 16.7
07:30 1022 30.18 851 25.13 -3.1 26.5 66 -8.5 16.7
07:35 1022 30.18 851 25.13 -3.1 26.4 67 -8.3 17
07:40 1022 30.18 851 25.13 -3.1 26.4 67 -8.4 16.8
07:45 1022 30.18 851 25.13 -2.8 26.9 66 -8.4 16.9
07:50 1022 30.18 851 25.13 -2.6 27.3 65 -8.4 16.9
07:55 1022 30.18 851 25.13 -2.5 27.5 64 -8.3 17
08:00 1022 30.18 851 25.13 -2.4 27.7 64 -8.2 17.2
08:05 1022 30.18 851 25.13 -2.5 27.5 64 -8.4 17
08:10 1022 30.18 851 25.13 -2 28.5 61 -8.5 16.7
08:15 1022 30.18 851 25.13 -1.5 29.4 58 -8.6 16.5
08:20 1022 30.18 851 25.13 -0.8 30.6 58 -8.1 17.4
08:25 1022 30.18 851 25.13 -0.7 30.8 58 -8.1 17.5
08:30 1022 30.18 851 25.13 -0.5 31.2 56 -8.1 17.4
08:35 1022 30.18 851 25.13 -0.2 31.6 56 -8 17.7
08:40 1022 30.18 851 25.13 0.3 32.5 54 -7.9 17.7
08:45 1022 30.18 851 25.13 0.7 33.2 54 -7.7 18.1
08:50 1022 30.18 851 25.13 1.3 34.3 52 -7.5 18.5
08:55 1022 30.18 851 25.13 1.6 34.9 50 -7.7 18.1
09:00 1022 30.18 851 25.13 2 35.6 49 -7.6 18.4
09:05 1022 30.18 851 25.13 2.1 35.8 48 -7.7 18.2
09:10 1022 30.18 851 25.13 2.3 36.1 48 -7.7 18.2
09:15 1022 30.18 851 25.13 2.6 36.7 45 -8.1 17.3
09:20 1022 30.18 851 25.13 2.9 37.1 44 -8.3 17.1
09:25 1022 30.18 851 25.13 3.2 37.7 43 -8.2 17.3
09:30 1022 30.18 851 25.13 3.9 39.1 39 -8.7 16.3
09:35 1022 30.18 851 25.13 4.5 40.1 39 -8.4 16.8
09:40 1022 30.18 851 25.13 4.9 40.9 38 -8.3 17.1
09:45 1022 30.18 851 25.13 5 41 39 -8 17.6
09:50 1022 30.18 851 25.13 5.1 41.2 38 -8.2 17.2
09:55 1022 30.18 851 25.13 5.5 41.9 36 -8.3 17
10:00 1022 30.18 851 25.13 5.7 42.3 36 -8.2 17.3
10:05 1022 30.18 851 25.13 5.4 41.6 38 -7.8 18
10:10 1022 30.18 851 25.13 5.1 41.2 39 -7.7 18.2
10:15 1022 30.18 851 25.13 5.5 41.9 38 -7.7 18.1
10:20 1022 30.18 851 25.13 5.9 42.7 34 -8.6 16.5
10:25 1022 30.18 851 25.13 6.4 43.6 34 -8.4 16.8
10:30 1022 30.18 851 25.13 6.4 43.6 35 -7.8 18
10:35 1022 30.18 851 25.13 6.2 43.2 33 -8.9 16
10:40 1022 30.18 851 25.13 6.9 44.4 33 -8.4 16.9
10:45 1022 30.18 851 25.13 7.3 45.1 32 -8.3 17
10:50 1022 30.18 851 25.13 7.7 45.8 32 -7.9 17.8
10:55 1022 30.18 851 25.13 7.9 46.3 32 -7.8 18
11:00 1022 30.18 851 25.13 7.8 46 33 -7.7 18.2
11:05 1022 30.18 851 25.13 7.5 45.5 32 -8.3 17
11:10 1022 30.18 851 25.13 8.2 46.7 31 -8 17.5
11:15 1022 30.18 851 25.13 8.3 46.9 32 -7.5 18.5
11:20 1022 30.18 851 25.13 8.6 47.4 31 -7.4 18.6
11:25 1021 30.15 851 25.13 7.4 45.3 35 -7 19.5
11:30 1021 30.15 851 25.13 7.2 44.9 33 -8.2 17.3
11:35 1021 30.15 851 25.13 8.7 47.7 30 -8 17.6
11:40 1021 30.15 851 25.13 8.6 47.4 31 -7.6 18.4
11:45 1021 30.15 850 25.1 7.6 45.7 34 -7.2 19
11:50 1021 30.15 850 25.1 7.3 45.1 32 -8.2 17.2
11:55 1021 30.15 850 25.1 8.6 47.5 30 -7.9 17.8
12:00 1021 30.15 850 25.1 8.5 47.2 29 -8.7 16.3
12:05 1021 30.15 850 25.1 7.8 46.1 29 -8.9 16
12:10 1021 30.15 850 25.1 9.1 48.4 26 -9.4 15.2
12:15 1021 30.15 850 25.1 9.4 49 27 -8.6 16.5
12:20 1021 30.15 850 25.1 9.4 48.9 28 -8.3 17.1
12:25 1021 30.15 850 25.1 8.7 47.6 29 -8.6 16.6
12:30 1021 30.15 850 25.1 8.4 47.1 28 -8.9 16
12:35 1021 30.15 850 25.1 8.4 47 28 -9.3 15.2
12:40 1020 30.12 850 25.1 9 48.2 27 -8.9 16
12:45 1020 30.12 850 25.1 9.6 49.2 26 -9.3 15.3
12:50 1020 30.12 850 25.1 9.8 49.6 26 -8.8 16.1
12:55 1020 30.12 850 25.1 10.1 50.2 25 -9.3 15.3
13:00 1020 30.12 850 25.1 10.9 51.7 24 -8.7 16.4
13:05 1020 30.12 849 25.07 10.7 51.3 25 -8.4 16.9
13:10 1020 30.12 849 25.07 10.7 51.2 25 -8.7 16.4
13:15 1020 30.12 849 25.07 11.5 52.6 23 -9.1 15.6
13:20 1020 30.12 849 25.07 11.3 52.4 24 -8.5 16.8
13:25 1020 30.12 849 25.07 10.7 51.3 24 -9.2 15.4
13:30 1020 30.12 849 25.07 11.3 52.3 23 -9.1 15.7
13:35 1020 30.12 849 25.07 11.7 53.1 22 -9.5 14.9
13:40 1020 30.12 849 25.07 12.2 53.9 21 -9.6 14.7
13:45 1020 30.12 849 25.07 11.9 53.3 22 -9.1 15.5
13:50 1020 30.12 849 25.07 11.6 52.8 22 -9.5 14.9
13:55 1020 30.12 849 25.07 11.9 53.5 22 -9.4 15.1
14:00 1020 30.12 849 25.07 12.7 54.9 20 -9.4 15.1
14:05 1020 30.12 849 25.07 12.5 54.5 21 -9.4 15.1
14:10 1020 30.12 849 25.07 11.7 53.1 21 -9.8 14.4
14:15 1020 30.12 849 25.07 11.7 53.1 21 -10 14
14:20 1020 30.12 849 25.07 12.6 54.6 20 -10.1 13.8
14:25 1020 30.12 849 25.07 12.9 55.2 20 -9.8 14.4
14:30 1020 30.12 849 25.07 13.2 55.7 19 -10.3 13.5
14:35 1020 30.12 849 25.07 12.8 55.1 20 -9.4 15
14:40 1020 30.12 849 25.07 12.5 54.4 19 -10.3 13.4
14:45 1020 30.12 849 25.07 12.4 54.4 19 -10.5 13.1
14:50 1020 30.12 849 25.07 11.7 53.1 20 -10.4 13.3
14:55 1020 30.12 849 25.07 12.8 55.1 19 -9.9 14.2
15:00 1020 30.12 849 25.07 13.7 56.6 19 -9.7 14.5
15:05 1020 30.12 849 25.07 13.2 55.7 20 -9.1 15.6
15:10 1020 30.12 849 25.07 13 55.4 20 -9.5 14.9
15:15 1020 30.12 849 25.07 12.8 55.1 20 -9.3 15.2
15:20 1020 30.12 849 25.07 13 55.3 20 -9.4 15.1
15:25 1020 30.12 849 25.07 13.2 55.7 19 -9.6 14.6
15:30 1020 30.12 849 25.07 13.4 56.2 19 -9.4 15
15:35 1020 30.12 849 25.07 13.4 56.1 19 -9.8 14.4
15:40 1020 30.12 849 25.07 13.5 56.3 19 -9.4 15.1
15:45 1020 30.12 849 25.07 13.2 55.7 19 -9.8 14.4
15:50 1020 30.12 849 25.07 13.1 55.6 20 -9.5 14.8
15:55 1020 30.12 849 25.07 13.3 55.9 19 -9.5 14.9
16:00 1020 30.12 849 25.07 13.4 56.1 19 -9.5 15
16:05 1020 30.12 849 25.07 12.8 55 20 -9.5 14.9
16:10 1020 30.12 849 25.07 12.9 55.2 20 -9.3 15.2
16:15 1020 30.12 849 25.07 12.9 55.2 21 -9.2 15.5
16:20 1020 30.12 849 25.07 13.1 55.5 21 -8.9 15.9
16:25 1020 30.12 849 25.07 12.9 55.1 21 -9.1 15.7
16:30 1020 30.12 849 25.07 12 53.7 22 -9 15.7
16:35 1020 30.12 849 25.07 11.7 53 22 -9.2 15.4
16:40 1020 30.12 849 25.07 11.2 52.1 23 -9.3 15.2
16:45 1020 30.12 849 25.07 10.7 51.3 26 -8.2 17.2
16:50 1020 30.12 849 25.07 10.6 51 24 -9.3 15.3
16:55 1020 30.12 849 25.07 10.5 50.9 24 -9.4 15
17:00 1020 30.12 849 25.07 10.7 51.2 23 -9.6 14.8
17:05 1020 30.12 849 25.07 10.8 51.5 24 -9.2 15.4
17:10 1020 30.12 849 25.07 10.9 51.6 23 -9.4 15.2
17:15 1020 30.12 849 25.07 10.7 51.2 25 -8.7 16.3
17:20 1020 30.12 849 25.07 10.3 50.6 25 -9 15.9
17:25 1020 30.12 849 25.07 10.1 50.1 26 -8.7 16.3
17:30 1020 30.12 849 25.07 9.7 49.4 34 -5.5 22
17:35 1020 30.12 849 25.07 8.8 47.8 34 -6.3 20.7
17:40 1020 30.12 849 25.07 8.4 47.1 36 -5.8 21.6
17:45 1020 30.12 849 25.07 7.8 46.1 38 -5.8 21.6
17:50 1020 30.12 849 25.07 7.6 45.6 38 -5.7 21.8
17:55 1020 30.12 849 25.07 7.4 45.3 39 -5.6 21.9
18:00 1020 30.12 849 25.07 7.1 44.7 41 -5.3 22.4
18:05 1020 30.12 849 25.07 6.8 44.2 42 -5.1 22.8
18:10 1020 30.12 849 25.07 6.6 43.9 43 -5.1 22.8
18:15 1020 30.12 849 25.07 6.5 43.7 43 -5.1 22.8
18:20 1020 30.12 849 25.07 6.5 43.6 44 -4.9 23.3
18:25 1020 30.12 849 25.07 6.4 43.5 39 -6.7 19.9
18:30 1020 30.12 849 25.07 6.7 44.1 42 -5.4 22.3
18:35 1020 30.12 849 25.07 6.4 43.5 41 -5.8 21.5
18:40 1020 30.12 849 25.07 6.4 43.5 41 -6 21.2
18:45 1020 30.12 849 25.07 6.6 43.8 40 -6.2 20.9
18:50 1020 30.12 849 25.07 6.6 43.9 39 -6.3 20.7
18:55 1020 30.12 849 25.07 6.7 44 40 -6 21.2
19:00 1020 30.12 849 25.07 6.6 43.9 40 -6.1 21
19:05 1020 30.12 849 25.07 6.6 43.8 41 -5.8 21.6
19:10 1020 30.12 849 25.07 6.6 43.8 42 -5.5 22.1
19:15 1020 30.12 849 25.07 6.4 43.6 43 -5.2 22.6
19:20 1020 30.12 849 25.07 6.2 43.1 44 -5.2 22.6
19:25 1020 30.12 849 25.07 6.2 43.2 43 -5.4 22.2
19:30 1020 30.12 849 25.07 6.4 43.5 43 -5.3 22.4
19:35 1020 30.12 849 25.07 6.4 43.5 43 -5.2 22.6
19:40 1020 30.12 849 25.07 6.3 43.4 43 -5.4 22.3
19:45 1020 30.12 849 25.07 6.2 43.1 44 -5.2 22.6
19:50 1020 30.12 849 25.07 5.8 42.5 46 -5 22.9
19:55 1020 30.12 849 25.07 5.3 41.6 49 -4.6 23.7
20:00 1020 30.12 849 25.07 4.6 40.3 51 -4.7 23.5
20:05 1020 30.12 849 25.07 4.3 39.8 52 -4.7 23.5
20:10 1020 30.12 849 25.07 4.1 39.4 52 -4.9 23.1
20:15 1020 30.12 849 25.07 4.2 39.6 50 -5.3 22.4
20:20 1020 30.12 849 25.07 4.7 40.4 49 -5.2 22.6
20:25 1020 30.12 849 25.07 4.9 40.8 48 -5.3 22.5
20:30 1020 30.12 849 25.07 5 41 47 -5.5 22.2
20:35 1020 30.12 849 25.07 5.1 41.2 47 -5.3 22.5
20:40 1020 30.12 849 25.07 4.9 40.9 48 -5.1 22.8
20:45 1020 30.12 849 25.07 4.6 40.2 47 -5.7 21.7
20:50 1020 30.12 849 25.07 4.9 40.8 45 -6.1 21.1
20:55 1020 30.12 849 25.07 5 40.9 46 -5.7 21.7
21:00 1020 30.12 849 25.07 5.1 41.1 45 -5.8 21.5
21:05 1020 30.12 849 25.07 5.1 41.2 45 -5.9 21.3
21:10 1020 30.12 849 25.07 5.1 41.3 45 -5.9 21.4
21:15 1020 30.12 849 25.07 5.2 41.4 44 -5.9 21.3
21:20 1020 30.12 849 25.07 5.4 41.8 44 -5.9 21.4
21:25 1020 30.12 849 25.07 5.5 41.8 43 -6.1 21.1
21:30 1020 30.12 849 25.07 5.7 42.2 43 -6 21.2
21:35 1020 30.12 849 25.07 5.8 42.4 42 -6.1 21
21:40 1020 30.12 849 25.07 5.7 42.3 43 -5.8 21.5
21:45 1020 30.12 849 25.07 5.8 42.4 42 -6.1 21
21:50 1020 30.12 849 25.07 5.7 42.2 43 -6 21.2
21:55 1020 30.12 849 25.07 5.7 42.3 42 -6.1 21.1
22:00 1020 30.12 849 25.07 5.8 42.5 43 -5.8 21.5
22:05 1020 30.12 849 25.07 5.7 42.3 43 -5.8 21.6
22:10 1020 30.12 849 25.07 5.5 41.9 45 -5.6 22
22:15 1020 30.12 849 25.07 5.1 41.1 46 -5.5 22.1
22:20 1020 30.12 849 25.07 4.9 40.8 47 -5.4 22.3
22:25 1020 30.12 849 25.07 5.1 41.2 45 -5.8 21.6
22:30 1020 30.12 849 25.07 5.4 41.7 45 -5.8 21.6
22:35 1020 30.12 849 25.07 5.6 42 44 -5.7 21.7
22:40 1020 30.12 849 25.07 5.7 42.2 44 -5.7 21.7
22:45 1020 30.12 849 25.07 5.5 41.9 45 -5.4 22.2
22:50 1019 30.09 849 25.07 5.1 41.2 47 -5.3 22.5
22:55 1019 30.09 849 25.07 4.8 40.6 48 -5.3 22.5
23:00 1019 30.09 849 25.07 4.6 40.2 48 -5.4 22.2
23:05 1019 30.09 849 25.07 4.9 40.8 46 -5.7 21.7
23:10 1019 30.09 849 25.07 5.2 41.4 46 -5.6 22
23:15 1019 30.09 849 25.07 5 41 47 -5.3 22.5
23:20 1019 30.09 849 25.07 4.7 40.5 47 -5.7 21.8
23:25 1019 30.09 848 25.04 4.8 40.7 46 -5.9 21.4
23:30 1019 30.09 848 25.04 5 40.9 46 -5.8 21.6
23:35 1019 30.09 848 25.04 5.1 41.2 45 -6 21.2
23:40 1019 30.09 848 25.04 5.5 42 43 -6 21.3
23:45 1019 30.09 848 25.04 5.4 41.8 45 -5.7 21.8
23:50 1019 30.09 848 25.04 5.2 41.4 45 -5.6 21.8
23:55 1019 30.09 848 25.04 5 41 48 -5.1 22.8
24:00 1019 30.09 848 25.04 4.7 40.5 46 -6 21.2